createdAt,value
2018-04-24T00:01:03.631Z,99.32
2018-04-24T00:02:12.463Z,99.03
2018-04-24T00:03:21.303Z,98.94
2018-04-24T00:04:30.134Z,98.94
2018-04-24T00:05:39.342Z,99.03
2018-04-24T00:06:48.171Z,99.03
2018-04-24T00:07:57.276Z,99.13
2018-04-24T00:09:06.114Z,99.13
2018-04-24T00:10:14.944Z,98.94
2018-04-24T00:11:23.877Z,98.84
2018-04-24T00:12:32.711Z,99.89
2018-04-24T00:13:41.544Z,99.13
2018-04-24T00:14:50.377Z,99.51
2018-04-24T00:15:59.215Z,99.79
2018-04-24T00:17:08.046Z,99.69
2018-04-24T00:18:17.426Z,99.32
2018-04-24T00:19:26.256Z,99.32
2018-04-24T00:20:35.088Z,99.03
2018-04-24T00:21:43.924Z,98.94
2018-04-24T00:22:52.853Z,99.22
2018-04-24T00:24:01.688Z,98.84
2018-04-24T00:25:10.796Z,99.6
2018-04-24T00:26:19.628Z,99.69
2018-04-24T00:27:28.460Z,99.51
2018-04-24T00:28:37.295Z,99.79
2018-04-24T00:29:46.135Z,99.51
2018-04-24T00:30:54.968Z,99.79
2018-04-24T00:32:03.804Z,99.51
2018-04-24T00:33:12.636Z,99.6
2018-04-24T00:34:21.885Z,99.79
2018-04-24T00:35:30.622Z,99.51
2018-04-24T00:36:39.733Z,99.32
2018-04-24T00:37:48.566Z,99.32
2018-04-24T00:38:57.396Z,99.69
2018-04-24T00:40:06.503Z,99.99
2018-04-24T00:41:15.336Z,99.99
2018-04-24T00:42:24.168Z,99.99
2018-04-24T00:43:33.003Z,99.99
2018-04-24T00:44:41.833Z,99.99
2018-04-24T00:45:50.847Z,99.99
2018-04-24T00:46:59.655Z,99.99
2018-04-24T00:48:08.486Z,99.99
2018-04-24T00:49:17.319Z,99.99
2018-04-24T00:50:26.150Z,99.99
2018-04-24T00:51:35.180Z,99.99
2018-04-24T00:52:44.292Z,99.99
2018-04-24T00:53:53.121Z,99.99
2018-04-24T00:55:01.952Z,99.99
2018-04-24T00:56:10.785Z,99.99
2018-04-24T00:57:19.665Z,99.99
2018-04-24T00:58:28.498Z,99.99
2018-04-24T00:59:37.334Z,99.99
2018-04-24T01:00:46.716Z,99.99
2018-04-24T01:01:55.546Z,99.99
2018-04-24T01:03:04.704Z,99.99
2018-04-24T01:04:13.535Z,99.99
2018-04-24T01:05:22.372Z,99.99
2018-04-24T01:06:31.202Z,99.99
2018-04-24T01:07:40.313Z,99.99
2018-04-24T01:08:49.495Z,99.99
2018-04-24T01:09:58.328Z,99.99
2018-04-24T01:11:07.161Z,99.99
2018-04-24T01:12:16.266Z,99.99
2018-04-24T01:13:25.099Z,99.99
2018-04-24T01:14:33.934Z,99.99
2018-04-24T01:15:42.767Z,99.99
2018-04-24T01:16:51.600Z,99.99
2018-04-24T01:18:00.432Z,99.99
2018-04-24T01:19:09.265Z,99.99
2018-04-24T01:20:18.201Z,99.99
2018-04-24T01:21:27.032Z,99.99
2018-04-24T01:22:35.866Z,99.99
2018-04-24T01:23:44.699Z,99.99
2018-04-24T01:24:53.594Z,99.99
2018-04-24T01:26:02.706Z,99.99
2018-04-24T01:27:11.541Z,99.99
2018-04-24T01:28:20.370Z,99.99
2018-04-24T01:29:29.201Z,99.99
2018-04-24T01:30:38.036Z,99.99
2018-04-24T01:31:47.017Z,99.99
2018-04-24T01:32:55.849Z,99.99
2018-04-24T01:34:04.963Z,99.99
2018-04-24T01:35:13.799Z,99.99
2018-04-24T01:36:22.629Z,99.99
2018-04-24T01:37:31.663Z,99.99
2018-04-24T01:38:40.495Z,99.99
2018-04-24T01:39:49.326Z,99.99
2018-04-24T01:40:58.159Z,99.99
2018-04-24T01:42:06.992Z,99.99
2018-04-24T01:43:16.503Z,99.99
2018-04-24T01:44:25.335Z,99.99
2018-04-24T01:45:34.170Z,99.99
2018-04-24T01:46:43.277Z,99.99
2018-04-24T01:47:52.113Z,99.99
2018-04-24T01:49:01.094Z,99.99
2018-04-24T01:50:09.926Z,99.99
2018-04-24T01:51:18.764Z,99.99
2018-04-24T01:52:27.600Z,99.99
2018-04-24T01:53:36.430Z,99.99
2018-04-24T01:54:45.363Z,99.99
2018-04-24T01:55:54.195Z,99.99
2018-04-24T01:57:03.028Z,99.99
2018-04-24T01:58:11.863Z,99.99
2018-04-24T01:59:20.696Z,99.99
2018-04-24T02:00:30.356Z,99.99
2018-04-24T02:01:39.468Z,99.99
2018-04-24T02:02:48.300Z,99.99
2018-04-24T02:03:57.411Z,99.99
2018-04-24T02:05:06.520Z,99.99
2018-04-24T02:06:15.657Z,99.99
2018-04-24T02:07:24.767Z,99.99
2018-04-24T02:08:33.601Z,99.99
2018-04-24T02:09:42.432Z,99.99
2018-04-24T02:10:51.541Z,99.99
2018-04-24T02:12:00.473Z,99.99
2018-04-24T02:13:09.306Z,99.99
2018-04-24T02:14:18.138Z,99.99
2018-04-24T02:15:27.245Z,99.99
2018-04-24T02:16:36.077Z,99.99
2018-04-24T02:17:44.911Z,99.99
2018-04-24T02:18:53.741Z,99.99
2018-04-24T02:20:02.574Z,99.99
2018-04-24T02:21:11.409Z,99.99
2018-04-24T02:22:20.515Z,99.99
2018-04-24T02:23:29.455Z,99.99
2018-04-24T02:24:38.288Z,99.99
2018-04-24T02:25:47.120Z,99.99
2018-04-24T02:26:56.506Z,99.99
2018-04-24T02:28:05.966Z,99.99
2018-04-24T02:29:14.906Z,99.99
2018-04-24T02:30:23.740Z,99.99
2018-04-24T02:31:32.573Z,99.99
2018-04-24T02:32:41.680Z,99.99
2018-04-24T02:33:50.519Z,99.99
2018-04-24T02:34:59.800Z,99.99
2018-04-24T02:36:08.919Z,99.99
2018-04-24T02:37:18.315Z,99.99
2018-04-24T02:38:27.147Z,99.99
2018-04-24T02:39:35.980Z,99.99
2018-04-24T02:40:45.294Z,99.99
2018-04-24T02:41:54.143Z,99.99
2018-04-24T02:43:03.258Z,99.99
2018-04-24T02:44:12.365Z,99.99
2018-04-24T02:45:21.477Z,99.99
2018-04-24T02:46:30.317Z,99.99
2018-04-24T02:47:39.419Z,99.99
2018-04-24T02:48:48.527Z,99.99
2018-04-24T02:49:57.646Z,99.99
2018-04-24T02:51:06.763Z,99.99
2018-04-24T02:52:15.976Z,99.99
2018-04-24T02:53:25.097Z,99.99
2018-04-24T02:54:33.929Z,99.99
2018-04-24T02:55:42.768Z,99.99
2018-04-24T02:56:51.604Z,99.99
2018-04-24T02:58:01.010Z,99.99
2018-04-24T02:59:09.850Z,99.99
2018-04-24T03:00:18.959Z,99.99
2018-04-24T03:01:27.797Z,99.99
2018-04-24T03:02:36.636Z,99.99
2018-04-24T03:03:45.751Z,99.99
2018-04-24T03:04:54.865Z,99.99
2018-04-24T03:06:03.699Z,99.99
2018-04-24T03:07:12.528Z,99.99
2018-04-24T03:08:21.641Z,99.99
2018-04-24T03:09:30.625Z,99.99
2018-04-24T03:10:39.743Z,99.99
2018-04-24T03:11:48.588Z,99.99
2018-04-24T03:12:58.011Z,99.99
2018-04-24T03:14:07.773Z,99.99
2018-04-24T03:15:17.136Z,99.99
2018-04-24T03:16:26.244Z,99.99
2018-04-24T03:17:35.077Z,99.99
2018-04-24T03:18:43.914Z,99.99
2018-04-24T03:19:52.741Z,99.99
2018-04-24T03:21:01.674Z,99.99
2018-04-24T03:22:10.506Z,99.99
2018-04-24T03:23:19.340Z,99.99
2018-04-24T03:24:28.174Z,99.99
2018-04-24T03:25:37.007Z,99.99
2018-04-24T03:26:46.089Z,99.99
2018-04-24T03:27:55.205Z,99.99
2018-04-24T03:29:04.310Z,99.99
2018-04-24T03:30:13.143Z,99.99
2018-04-24T03:31:22.535Z,99.99
2018-04-24T03:32:32.126Z,99.99
2018-04-24T03:33:40.961Z,99.99
2018-04-24T03:34:50.067Z,99.99
2018-04-24T03:35:58.903Z,99.99
2018-04-24T03:37:07.737Z,99.99
2018-04-24T03:38:16.672Z,99.94
2018-04-24T03:39:25.507Z,99.99
2018-04-24T03:40:34.347Z,99.99
2018-04-24T03:41:43.175Z,99.99
2018-04-24T03:42:52.008Z,99.84
2018-04-24T03:44:00.839Z,99.99
2018-04-24T03:45:09.673Z,99.99
2018-04-24T03:46:18.508Z,99.94
2018-04-24T03:47:27.342Z,99.94
2018-04-24T03:48:36.178Z,99.94
2018-04-24T03:49:45.114Z,99.84
2018-04-24T03:50:53.943Z,99.94
2018-04-24T03:52:02.777Z,99.84
2018-04-24T03:53:11.613Z,99.99
2018-04-24T03:54:20.444Z,99.94
2018-04-24T03:55:29.379Z,99.99
2018-04-24T03:56:38.273Z,99.99
2018-04-24T03:57:47.108Z,99.94
2018-04-24T03:58:56.216Z,99.99
2018-04-24T04:00:05.052Z,99.99
2018-04-24T04:01:14.265Z,99.99
2018-04-24T04:02:23.097Z,99.75
2018-04-24T04:03:32.207Z,99.99
2018-04-24T04:04:41.370Z,99.99
2018-04-24T04:05:50.206Z,99.99
2018-04-24T04:06:59.141Z,99.94
2018-04-24T04:08:08.032Z,99.46
2018-04-24T04:09:16.809Z,99.75
2018-04-24T04:10:25.919Z,99.94
2018-04-24T04:11:34.753Z,99.99
2018-04-24T04:12:43.959Z,99.99
2018-04-24T04:13:52.791Z,99.94
2018-04-24T04:15:01.625Z,99.84
2018-04-24T04:16:10.731Z,99.99
2018-04-24T04:17:19.914Z,99.99
2018-04-24T04:18:29.047Z,99.99
2018-04-24T04:19:37.885Z,99.75
2018-04-24T04:20:46.721Z,99.37
2018-04-24T04:21:55.827Z,99.99
2018-04-24T04:23:05.212Z,99.94
2018-04-24T04:24:14.044Z,99.99
2018-04-24T04:25:22.877Z,99.99
2018-04-24T04:26:31.712Z,99.99
2018-04-24T04:27:40.817Z,99.99
2018-04-24T04:28:49.921Z,99.99
2018-04-24T04:29:58.854Z,99.94
2018-04-24T04:31:07.692Z,99.99
2018-04-24T04:32:16.525Z,99.94
2018-04-24T04:33:25.360Z,99.99
2018-04-24T04:34:34.464Z,99.99
2018-04-24T04:35:43.497Z,99.99
2018-04-24T04:36:52.685Z,99.99
2018-04-24T04:38:01.519Z,99.99
2018-04-24T04:39:10.353Z,99.99
2018-04-24T04:40:19.191Z,99.75
2018-04-24T04:41:28.139Z,99.51
2018-04-24T04:42:37.251Z,99.99
2018-04-24T04:43:46.101Z,99.99
2018-04-24T04:44:55.004Z,99.94
2018-04-24T04:46:03.839Z,99.99
2018-04-24T04:47:13.003Z,99.99
2018-04-24T04:48:22.806Z,99.99
2018-04-24T04:49:31.658Z,99.99
2018-04-24T04:50:40.492Z,99.51
2018-04-24T04:51:49.599Z,99.99
2018-04-24T04:52:58.431Z,99.99
2018-04-24T04:54:07.270Z,99.99
2018-04-24T04:55:16.104Z,99.99
2018-04-24T04:56:25.212Z,99.99
2018-04-24T04:57:34.321Z,99.99
2018-04-24T04:58:43.156Z,99.99
2018-04-24T04:59:52.270Z,99.99
2018-04-24T05:01:01.110Z,99.99
2018-04-24T05:02:09.943Z,99.99
2018-04-24T05:03:19.049Z,99.99
2018-04-24T05:04:28.168Z,99.99
2018-04-24T05:05:37.298Z,99.99
2018-04-24T05:06:46.134Z,99.99
2018-04-24T05:07:54.967Z,99.99
2018-04-24T05:09:04.077Z,99.99
2018-04-24T05:10:12.906Z,99.99
2018-04-24T05:11:21.738Z,99.99
2018-04-24T05:12:30.572Z,99.99
2018-04-24T05:13:39.404Z,99.99
2018-04-24T05:14:48.237Z,99.99
2018-04-24T05:15:57.073Z,99.99
2018-04-24T05:17:06.462Z,99.99
2018-04-24T05:18:15.347Z,99.99
2018-04-24T05:19:24.463Z,99.99
2018-04-24T05:20:33.297Z,99.99
2018-04-24T05:21:42.130Z,99.99
2018-04-24T05:22:50.961Z,99.99
2018-04-24T05:24:00.178Z,99.99
2018-04-24T05:25:09.013Z,99.99
2018-04-24T05:26:18.120Z,99.99
2018-04-24T05:27:26.953Z,99.99
2018-04-24T05:28:35.787Z,99.99
2018-04-24T05:29:44.672Z,99.99
2018-04-24T05:30:53.505Z,99.99
2018-04-24T05:32:02.343Z,99.99
2018-04-24T05:33:11.185Z,99.99
2018-04-24T05:34:20.294Z,99.99
2018-04-24T05:35:29.128Z,99.99
2018-04-24T05:36:37.967Z,99.99
2018-04-24T05:37:47.119Z,99.99
2018-04-24T05:38:56.521Z,99.99
2018-04-24T05:40:05.640Z,99.99
2018-04-24T05:41:14.798Z,99.99
2018-04-24T05:42:23.733Z,99.99
2018-04-24T05:43:32.707Z,99.99
2018-04-24T05:44:41.711Z,99.99
2018-04-24T05:45:50.975Z,99.99
2018-04-24T05:47:00.002Z,99.55
2018-04-24T05:48:08.971Z,99.37
2018-04-24T05:49:17.817Z,98.79
2018-04-24T05:50:26.934Z,98.32
2018-04-24T05:51:36.039Z,98.03
2018-04-24T05:52:44.876Z,97.75
2018-04-24T05:53:53.717Z,96.8
2018-04-24T05:55:02.548Z,96.8
2018-04-24T05:56:11.383Z,97.17
2018-04-24T05:57:20.221Z,97.36
2018-04-24T05:58:29.331Z,96.6
2018-04-24T05:59:38.165Z,96.89
2018-04-24T06:00:47.001Z,96.8
2018-04-24T06:01:55.834Z,96.98
2018-04-24T06:03:04.775Z,96.8
2018-04-24T06:04:14.293Z,96.8
2018-04-24T06:05:23.129Z,96.41
2018-04-24T06:06:32.013Z,96.03
2018-04-24T06:07:40.845Z,96.12
2018-04-24T06:08:49.679Z,96.32
2018-04-24T06:09:58.795Z,96.32
2018-04-24T06:11:08.181Z,96.03
2018-04-24T06:12:17.015Z,96.32
2018-04-24T06:13:26.135Z,96.41
2018-04-24T06:14:35.248Z,96.41
2018-04-24T06:15:44.637Z,96.32
2018-04-24T06:16:53.472Z,96.03
2018-04-24T06:18:02.311Z,96.51
2018-04-24T06:19:11.152Z,96.03
2018-04-24T06:20:19.987Z,96.03
2018-04-24T06:21:28.822Z,96.41
2018-04-24T06:22:38.055Z,96.03
2018-04-24T06:23:47.051Z,96.51
2018-04-24T06:24:56.161Z,96.22
2018-04-24T06:26:04.996Z,96.41
2018-04-24T06:27:13.829Z,96.03
2018-04-24T06:28:22.682Z,96.03
2018-04-24T06:29:31.504Z,96.32
2018-04-24T06:30:40.895Z,96.32
2018-04-24T06:31:49.719Z,96.32
2018-04-24T06:32:58.551Z,95.94
2018-04-24T06:34:07.386Z,96.22
2018-04-24T06:35:16.492Z,96.03
2018-04-24T06:36:25.323Z,96.41
2018-04-24T06:37:34.161Z,96.41
2018-04-24T06:38:42.991Z,96.51
2018-04-24T06:39:51.831Z,96.8
2018-04-24T06:41:01.041Z,96.41
2018-04-24T06:42:09.819Z,96.03
2018-04-24T06:43:18.650Z,96.22
2018-04-24T06:44:27.483Z,96.56
2018-04-24T06:45:36.324Z,96.51
2018-04-24T06:46:45.435Z,96.6
2018-04-24T06:47:54.268Z,96.22
2018-04-24T06:49:03.107Z,96.6
2018-04-24T06:50:11.935Z,96.51
2018-04-24T06:51:21.047Z,96.41
2018-04-24T06:52:29.877Z,96.27
2018-04-24T06:53:38.711Z,96.51
2018-04-24T06:54:47.542Z,96.7
2018-04-24T06:55:56.374Z,96.41
2018-04-24T06:57:05.208Z,96.22
2018-04-24T06:58:14.046Z,96.22
2018-04-24T06:59:23.430Z,96.22
2018-04-24T07:00:32.342Z,96.51
2018-04-24T07:01:41.733Z,96.32
2018-04-24T07:02:50.839Z,96.75
2018-04-24T07:04:00.221Z,96.46
2018-04-24T07:05:09.057Z,96.6
2018-04-24T07:06:18.177Z,96.7
2018-04-24T07:07:27.291Z,96.32
2018-04-24T07:08:36.125Z,96.56
2018-04-24T07:09:44.960Z,96.75
2018-04-24T07:10:53.795Z,96.56
2018-04-24T07:12:02.629Z,96.56
2018-04-24T07:13:11.461Z,96.46
2018-04-24T07:14:20.296Z,96.75
2018-04-24T07:15:29.406Z,96.56
2018-04-24T07:16:38.242Z,96.46
2018-04-24T07:17:47.356Z,96.46
2018-04-24T07:18:56.190Z,96.56
2018-04-24T07:20:05.297Z,96.27
2018-04-24T07:21:14.129Z,96.36
2018-04-24T07:22:23.240Z,96.27
2018-04-24T07:23:32.079Z,96.56
2018-04-24T07:24:40.911Z,96.46
2018-04-24T07:25:49.747Z,96.65
2018-04-24T07:26:59.214Z,96.27
2018-04-24T07:28:08.277Z,96.08
2018-04-24T07:29:17.113Z,97.13
2018-04-24T07:30:25.946Z,96.27
2018-04-24T07:31:34.785Z,96.46
2018-04-24T07:32:43.672Z,96.56
2018-04-24T07:33:52.501Z,97.13
2018-04-24T07:35:01.336Z,96.27
2018-04-24T07:36:10.173Z,96.27
2018-04-24T07:37:19.279Z,96.27
2018-04-24T07:38:28.114Z,96.56
2018-04-24T07:39:36.949Z,97.13
2018-04-24T07:40:45.783Z,96.56
2018-04-24T07:41:54.891Z,96.56
2018-04-24T07:43:03.726Z,96.36
2018-04-24T07:44:12.562Z,97.13
2018-04-24T07:45:21.394Z,97.22
2018-04-24T07:46:30.239Z,97.13
2018-04-24T07:47:39.752Z,97.41
2018-04-24T07:48:48.587Z,96.27
2018-04-24T07:49:57.573Z,96.46
2018-04-24T07:51:06.411Z,97.17
2018-04-24T07:52:15.524Z,97.46
2018-04-24T07:53:24.356Z,96.32
2018-04-24T07:54:33.188Z,97.08
2018-04-24T07:55:42.021Z,97.46
2018-04-24T07:56:50.854Z,97.32
2018-04-24T07:57:59.958Z,97.27
2018-04-24T07:59:08.790Z,97.27
2018-04-24T08:00:17.625Z,97.08
2018-04-24T08:01:26.456Z,97.66
2018-04-24T08:02:35.296Z,97.66
2018-04-24T08:03:44.406Z,97.27
2018-04-24T08:04:53.238Z,97.37
2018-04-24T08:06:02.071Z,97.17
2018-04-24T08:07:10.954Z,97.37
2018-04-24T08:08:20.067Z,97.66
2018-04-24T08:09:28.900Z,97.17
2018-04-24T08:10:38.010Z,97.56
2018-04-24T08:11:46.844Z,97.56
2018-04-24T08:12:55.679Z,97.66
2018-04-24T08:14:04.514Z,97.66
2018-04-24T08:15:13.348Z,97.37
2018-04-24T08:16:22.458Z,97.75
2018-04-24T08:17:31.294Z,97.75
2018-04-24T08:18:40.129Z,97.56
2018-04-24T08:19:48.963Z,97.85
2018-04-24T08:20:58.074Z,97.75
2018-04-24T08:22:06.926Z,97.37
2018-04-24T08:23:15.759Z,97.94
2018-04-24T08:24:24.641Z,97.56
2018-04-24T08:25:33.475Z,97.66
2018-04-24T08:26:42.309Z,97.17
2018-04-24T08:27:51.521Z,97.56
2018-04-24T08:29:00.358Z,97.27
2018-04-24T08:30:09.194Z,97.75
2018-04-24T08:31:18.028Z,97.75
2018-04-24T08:32:27.139Z,97.46
2018-04-24T08:33:36.048Z,97.56
2018-04-24T08:34:45.109Z,97.56
2018-04-24T08:35:53.942Z,97.56
2018-04-24T08:37:02.781Z,97.66
2018-04-24T08:38:11.894Z,97.56
2018-04-24T08:39:21.010Z,97.56
2018-04-24T08:40:30.113Z,97.94
2018-04-24T08:41:39.003Z,97.75
2018-04-24T08:42:47.830Z,98.22
2018-04-24T08:43:56.941Z,98.61
2018-04-24T08:45:05.777Z,98.8
2018-04-24T08:46:14.709Z,97.85
2018-04-24T08:47:23.454Z,98.61
2018-04-24T08:48:32.285Z,97.46
2018-04-24T08:49:41.170Z,98.42
2018-04-24T08:50:50.003Z,98.42
2018-04-24T08:51:58.842Z,98.22
2018-04-24T08:53:07.674Z,98.32
2018-04-24T08:54:16.510Z,98.32
2018-04-24T08:55:25.344Z,98.32
2018-04-24T08:56:34.179Z,98.22
2018-04-24T08:57:43.014Z,98.22
2018-04-24T08:58:51.850Z,98.61
2018-04-24T09:00:00.962Z,98.03
2018-04-24T09:01:10.076Z,97.94
2018-04-24T09:02:19.190Z,98.22
2018-04-24T09:03:28.026Z,98.42
2018-04-24T09:04:37.134Z,98.22
2018-04-24T09:05:46.244Z,98.32
2018-04-24T09:06:55.087Z,98.22
2018-04-24T09:08:03.923Z,98.42
2018-04-24T09:09:12.761Z,97.75
2018-04-24T09:10:21.614Z,97.94
2018-04-24T09:11:30.432Z,98.22
2018-04-24T09:12:39.544Z,98.22
2018-04-24T09:13:48.385Z,98.42
2018-04-24T09:14:57.508Z,98.22
2018-04-24T09:16:06.351Z,98.03
2018-04-24T09:17:15.460Z,98.22
2018-04-24T09:18:24.570Z,98.32
2018-04-24T09:19:33.675Z,97.85
2018-04-24T09:20:42.509Z,98.22
2018-04-24T09:21:51.343Z,98.32
2018-04-24T09:23:00.177Z,98.03
2018-04-24T09:24:09.009Z,98.42
2018-04-24T09:25:18.122Z,98.22
2018-04-24T09:26:26.960Z,98.22
2018-04-24T09:27:35.794Z,98.22
2018-04-24T09:28:44.629Z,98.22
2018-04-24T09:29:53.664Z,98.22
2018-04-24T09:31:02.881Z,98.32
2018-04-24T09:32:11.771Z,98.32
2018-04-24T09:33:20.597Z,98.03
2018-04-24T09:34:29.435Z,98.03
2018-04-24T09:35:38.544Z,98.42
2018-04-24T09:36:47.652Z,98.22
2018-04-24T09:37:56.761Z,98.42
2018-04-24T09:39:05.707Z,98.61
2018-04-24T09:40:14.835Z,98.42
2018-04-24T09:41:23.670Z,98.42
2018-04-24T09:42:32.785Z,98.42
2018-04-24T09:43:41.622Z,98.13
2018-04-24T09:44:50.732Z,98.03
2018-04-24T09:46:00.285Z,98.22
2018-04-24T09:47:09.742Z,98.22
2018-04-24T09:48:18.576Z,98.61
2018-04-24T09:49:27.800Z,98.42
2018-04-24T09:50:36.993Z,98.61
2018-04-24T09:51:45.829Z,98.32
2018-04-24T09:52:54.665Z,98.13
2018-04-24T09:54:03.499Z,98.22
2018-04-24T09:55:12.342Z,98.13
2018-04-24T09:56:21.171Z,98.18
2018-04-24T09:57:30.278Z,98.18
2018-04-24T09:58:39.109Z,98.03
2018-04-24T09:59:47.943Z,98.03
2018-04-24T10:00:56.780Z,97.94
2018-04-24T10:02:05.626Z,98.13
2018-04-24T10:03:14.458Z,98.27
2018-04-24T10:04:23.293Z,98.42
2018-04-24T10:05:32.750Z,98.08
2018-04-24T10:06:41.587Z,98.18
2018-04-24T10:07:50.433Z,98.66
2018-04-24T10:08:59.614Z,98.18
2018-04-24T10:10:08.726Z,98.47
2018-04-24T10:11:17.559Z,98.37
2018-04-24T10:12:26.396Z,98.27
2018-04-24T10:13:35.342Z,98.27
2018-04-24T10:14:45.291Z,98.27
2018-04-24T10:15:54.128Z,98.27
2018-04-24T10:17:03.240Z,98.18
2018-04-24T10:18:12.077Z,98.27
2018-04-24T10:19:20.905Z,98.37
2018-04-24T10:20:29.740Z,98.08
2018-04-24T10:21:38.574Z,98.66
2018-04-24T10:22:47.409Z,97.71
2018-04-24T10:23:56.350Z,97.71
2018-04-24T10:25:05.186Z,98.08
2018-04-24T10:26:14.298Z,98.27
2018-04-24T10:27:23.187Z,98.27
2018-04-24T10:28:31.962Z,98.18
2018-04-24T10:29:41.073Z,98.27
2018-04-24T10:30:50.183Z,97.99
2018-04-24T10:31:59.020Z,98.37
2018-04-24T10:33:07.854Z,98.37
2018-04-24T10:34:16.691Z,98.08
2018-04-24T10:35:25.523Z,98.47
2018-04-24T10:36:34.360Z,97.99
2018-04-24T10:37:43.189Z,98.66
2018-04-24T10:38:52.025Z,98.18
2018-04-24T10:40:00.865Z,97.89
2018-04-24T10:41:09.978Z,97.99
2018-04-24T10:42:18.813Z,98.27
2018-04-24T10:43:27.645Z,98.18
2018-04-24T10:44:36.758Z,98.08
2018-04-24T10:45:45.593Z,98.37
2018-04-24T10:46:54.428Z,98.27
2018-04-24T10:48:03.345Z,98.47
2018-04-24T10:49:12.101Z,98.51
2018-04-24T10:50:20.937Z,98.18
2018-04-24T10:51:29.772Z,98.08
2018-04-24T10:52:38.607Z,98.08
2018-04-24T10:53:47.435Z,98.47
2018-04-24T10:54:56.270Z,98.47
2018-04-24T10:56:05.540Z,98.27
2018-04-24T10:57:14.498Z,98.08
2018-04-24T10:58:23.887Z,98.08
2018-04-24T10:59:32.722Z,98.37
2018-04-24T11:00:41.571Z,98.42
2018-04-24T11:01:50.390Z,98.27
2018-04-24T11:02:59.509Z,97.89
2018-04-24T11:04:08.345Z,98.08
2018-04-24T11:05:17.177Z,98.18
2018-04-24T11:06:26.013Z,97.99
2018-04-24T11:07:34.848Z,98.27
2018-04-24T11:08:43.685Z,98.08
2018-04-24T11:09:52.533Z,98.08
2018-04-24T11:11:01.671Z,98.08
2018-04-24T11:12:10.512Z,98.37
2018-04-24T11:13:19.352Z,97.32
2018-04-24T11:14:28.186Z,97.32
2018-04-24T11:15:37.591Z,97.61
2018-04-24T11:16:46.703Z,98.08
2018-04-24T11:17:55.539Z,97.71
2018-04-24T11:19:04.373Z,98.08
2018-04-24T11:20:13.208Z,97.71
2018-04-24T11:21:22.120Z,97.51
2018-04-24T11:22:30.882Z,97.42
2018-04-24T11:23:39.719Z,97.61
2018-04-24T11:24:48.827Z,97.8
2018-04-24T11:25:57.666Z,97.51
2018-04-24T11:27:06.505Z,97.71
2018-04-24T11:28:15.349Z,97.71
2018-04-24T11:29:24.277Z,97.61
2018-04-24T11:30:33.033Z,97.42
2018-04-24T11:31:42.147Z,98.37
2018-04-24T11:32:50.983Z,98.08
2018-04-24T11:33:59.871Z,97.99
2018-04-24T11:35:08.702Z,98.08
2018-04-24T11:36:17.541Z,97.99
2018-04-24T11:37:26.375Z,98.08
2018-04-24T11:38:35.214Z,98.56
2018-04-24T11:39:44.054Z,97.71
2018-04-24T11:40:52.899Z,98.27
2018-04-24T11:42:02.014Z,98.08
2018-04-24T11:43:11.146Z,98.18
2018-04-24T11:44:20.003Z,98.18
2018-04-24T11:45:28.845Z,98.18
2018-04-24T11:46:37.687Z,98.18
2018-04-24T11:47:46.538Z,98.18
2018-04-24T11:48:55.373Z,97.99
2018-04-24T11:50:04.211Z,97.61
2018-04-24T11:51:13.421Z,97.13
2018-04-24T11:52:22.258Z,97.42
2018-04-24T11:53:31.374Z,97.22
2018-04-24T11:54:40.210Z,97.51
2018-04-24T11:55:49.049Z,97.17
2018-04-24T11:56:57.885Z,97.13
2018-04-24T11:58:06.995Z,97.08
2018-04-24T11:59:15.838Z,96.94
2018-04-24T12:00:24.668Z,96.84
2018-04-24T12:01:33.506Z,96.84
2018-04-24T12:02:42.445Z,96.17
2018-04-24T12:03:51.963Z,96.17
2018-04-24T12:05:01.071Z,95.79
2018-04-24T12:06:10.174Z,96.37
2018-04-24T12:07:19.286Z,96.17
2018-04-24T12:08:28.120Z,95.89
2018-04-24T12:09:37.234Z,96.27
2018-04-24T12:10:46.077Z,95.79
2018-04-24T12:11:55.188Z,95.61
2018-04-24T12:13:04.589Z,95.89
2018-04-24T12:14:13.427Z,96.56
2018-04-24T12:15:22.259Z,96.17
2018-04-24T12:16:31.098Z,96.27
2018-04-24T12:17:39.939Z,96.22
2018-04-24T12:18:48.776Z,96.13
2018-04-24T12:19:57.614Z,96.22
2018-04-24T12:21:06.449Z,96.42
2018-04-24T12:22:15.285Z,96.37
2018-04-24T12:23:24.685Z,96.32
2018-04-24T12:24:33.544Z,96.51
2018-04-24T12:25:42.555Z,96.32
2018-04-24T12:26:51.395Z,96.22
2018-04-24T12:28:00.230Z,96.32
2018-04-24T12:29:09.067Z,96.32
2018-04-24T12:30:17.901Z,96.22
2018-04-24T12:31:26.740Z,96.22
2018-04-24T12:32:35.579Z,96.03
2018-04-24T12:33:44.412Z,96.32
2018-04-24T12:34:53.248Z,96.22
2018-04-24T12:36:02.357Z,96.22
2018-04-24T12:37:11.192Z,96.03
2018-04-24T12:38:20.029Z,95.94
2018-04-24T12:39:28.866Z,96.03
2018-04-24T12:40:37.991Z,95.65
2018-04-24T12:41:46.827Z,95.36
2018-04-24T12:42:55.715Z,94.89
2018-04-24T12:44:04.553Z,94.41
2018-04-24T12:45:13.427Z,94.51
2018-04-24T12:46:23.086Z,94.41
2018-04-24T12:47:32.206Z,93.93
2018-04-24T12:48:41.048Z,94.31
2018-04-24T12:49:49.883Z,93.26
2018-04-24T12:50:58.997Z,92.97
2018-04-24T12:52:08.117Z,93.26
2018-04-24T12:53:16.970Z,93.26
2018-04-24T12:54:25.809Z,92.97
2018-04-24T12:55:34.678Z,93.07
2018-04-24T12:56:43.542Z,92.88
2018-04-24T12:57:53.055Z,93.36
2018-04-24T12:59:02.453Z,93.46
2018-04-24T13:00:11.570Z,93.36
2018-04-24T13:01:20.411Z,93.46
2018-04-24T13:02:30.123Z,93.55
2018-04-24T13:03:39.345Z,93.55
2018-04-24T13:04:49.299Z,93.36
2018-04-24T13:05:58.172Z,93.46
2018-04-24T13:07:07.328Z,93.55
2018-04-24T13:08:16.418Z,93.26
2018-04-24T13:09:25.615Z,93.65
2018-04-24T13:10:34.472Z,93.74
2018-04-24T13:11:43.359Z,93.65
2018-04-24T13:12:52.249Z,93.65
2018-04-24T13:14:01.573Z,94.6
2018-04-24T13:15:10.701Z,94.7
2018-04-24T13:16:19.604Z,94.6
2018-04-24T13:17:28.539Z,94.22
2018-04-24T13:18:37.675Z,94.7
2018-04-24T13:19:46.779Z,94.31
2018-04-24T13:20:55.601Z,94.98
2018-04-24T13:22:04.440Z,94.46
2018-04-24T13:23:13.375Z,94.65
2018-04-24T13:24:22.210Z,94.89
2018-04-24T13:25:31.416Z,94.93
2018-04-24T13:26:40.955Z,95.03
2018-04-24T13:27:49.788Z,94.93
2018-04-24T13:28:58.628Z,95.12
2018-04-24T13:30:07.743Z,95.7
2018-04-24T13:31:16.615Z,95.61
2018-04-24T13:32:25.425Z,95.61
2018-04-24T13:33:34.261Z,95.79
2018-04-24T13:34:43.572Z,95.32
2018-04-24T13:35:52.412Z,95.61
2018-04-24T13:37:01.247Z,95.98
2018-04-24T13:38:10.083Z,95.65
2018-04-24T13:39:18.920Z,95.56
2018-04-24T13:40:27.958Z,95.75
2018-04-24T13:41:36.794Z,96.03
2018-04-24T13:42:45.631Z,95.65
2018-04-24T13:43:54.467Z,96.03
2018-04-24T13:45:03.303Z,95.94
2018-04-24T13:46:12.243Z,95.94
2018-04-24T13:47:21.090Z,96.22
2018-04-24T13:48:29.924Z,95.94
2018-04-24T13:49:39.035Z,95.84
2018-04-24T13:50:47.871Z,96.27
2018-04-24T13:51:56.808Z,96.03
2018-04-24T13:53:05.645Z,96.56
2018-04-24T13:54:14.482Z,96.32
2018-04-24T13:55:23.395Z,96.22
2018-04-24T13:56:32.155Z,95.84
2018-04-24T13:57:40.985Z,96.13
2018-04-24T13:58:49.823Z,96.56
2018-04-24T13:59:58.660Z,96.66
2018-04-24T14:01:08.072Z,96.7
2018-04-24T14:02:16.905Z,97.03
2018-04-24T14:03:25.743Z,96.37
2018-04-24T14:04:34.586Z,96.75
2018-04-24T14:05:43.973Z,96.94
2018-04-24T14:06:52.809Z,96.84
2018-04-24T14:08:01.930Z,97.03
2018-04-24T14:09:10.762Z,96.56
2018-04-24T14:10:19.879Z,96.75
2018-04-24T14:11:28.720Z,96.84
2018-04-24T14:12:37.557Z,96.66
2018-04-24T14:13:46.669Z,96.7
2018-04-24T14:14:55.779Z,96.13
2018-04-24T14:16:05.167Z,96.89
2018-04-24T14:17:14.008Z,96.03
2018-04-24T14:18:22.858Z,96.32
2018-04-24T14:19:31.710Z,96.13
2018-04-24T14:20:40.562Z,97.13
2018-04-24T14:21:49.486Z,96.7
2018-04-24T14:22:58.240Z,96.56
2018-04-24T14:24:07.892Z,96.56
2018-04-24T14:25:16.725Z,96.84
2018-04-24T14:26:25.842Z,96.99
2018-04-24T14:27:34.678Z,97.04
2018-04-24T14:28:43.518Z,97.18
2018-04-24T14:29:52.636Z,97.18
2018-04-24T14:31:01.471Z,96.84
2018-04-24T14:32:10.312Z,96.7
2018-04-24T14:33:19.420Z,96.94
2018-04-24T14:34:28.358Z,97.61
2018-04-24T14:35:37.195Z,97.42
2018-04-24T14:36:46.032Z,97.8
2018-04-24T14:37:54.867Z,97.8
2018-04-24T14:39:03.978Z,97.71
2018-04-24T14:40:13.016Z,97.56
2018-04-24T14:41:21.860Z,97.75
2018-04-24T14:42:30.691Z,96.8
2018-04-24T14:43:39.528Z,97.75
2018-04-24T14:44:48.379Z,96.84
2018-04-24T14:45:57.579Z,97.04
2018-04-24T14:47:06.414Z,97.04
2018-04-24T14:48:15.250Z,97.33
2018-04-24T14:49:24.088Z,96.84